createdAt,value
2023-04-22T00:00:12.676Z,1013.91
2023-04-22T00:01:17.563Z,1013.88
2023-04-22T00:02:22.019Z,1013.88
2023-04-22T00:03:25.822Z,1013.89
2023-04-22T00:04:30.512Z,1013.93
2023-04-22T00:05:34.689Z,1013.90
2023-04-22T00:06:38.983Z,1013.90
2023-04-22T00:07:39.136Z,1013.85
2023-04-22T00:08:43.222Z,1013.87
2023-04-22T00:09:47.826Z,1013.90
2023-04-22T00:10:51.885Z,1013.88
2023-04-22T00:11:56.495Z,1013.91
2023-04-22T00:13:00.814Z,1013.89
2023-04-22T00:14:04.910Z,1013.88
2023-04-22T00:15:09.280Z,1013.85
2023-04-22T00:16:13.911Z,1013.87
2023-04-22T00:17:18.096Z,1013.87
2023-04-22T00:18:22.295Z,1013.88
2023-04-22T00:19:26.618Z,1013.88
2023-04-22T00:20:31.224Z,1013.87
2023-04-22T00:21:35.587Z,1013.88
2023-04-22T00:22:40.163Z,1013.90
2023-04-22T00:23:43.984Z,1013.82
2023-04-22T00:24:48.330Z,1013.88
2023-04-22T00:25:52.898Z,1013.84
2023-04-22T00:26:56.990Z,1013.83
2023-04-22T00:28:01.355Z,1013.86
2023-04-22T00:29:05.711Z,1013.83
2023-04-22T00:30:10.056Z,1013.85
2023-04-22T00:31:15.011Z,1013.79
2023-04-22T00:32:19.001Z,1013.80
2023-04-22T00:33:23.067Z,1013.79
2023-04-22T00:34:27.384Z,1013.80
2023-04-22T00:35:31.717Z,1013.81
2023-04-22T00:36:36.316Z,1013.84
2023-04-22T00:37:41.663Z,1013.87
2023-04-22T00:38:46.033Z,1013.88
2023-04-22T00:39:50.659Z,1013.84
2023-04-22T00:40:54.499Z,1013.85
2023-04-22T00:41:58.866Z,1013.84
2023-04-22T00:43:03.212Z,1013.86
2023-04-22T00:44:07.844Z,1013.90
2023-04-22T00:45:11.951Z,1013.91
2023-04-22T00:46:16.328Z,1013.93
2023-04-22T00:47:20.910Z,1013.90
2023-04-22T00:48:27.533Z,1013.92
2023-04-22T00:49:29.657Z,1013.92
2023-04-22T00:50:34.027Z,1013.91
2023-04-22T00:51:38.103Z,1013.94
2023-04-22T00:52:42.747Z,1013.91
2023-04-22T00:53:47.067Z,1013.97
2023-04-22T00:54:51.416Z,1013.99
2023-04-22T00:55:55.537Z,1013.96
2023-04-22T00:57:00.410Z,1013.97
2023-04-22T00:58:04.507Z,1014.01
2023-04-22T00:59:08.877Z,1013.99
2023-04-22T01:00:12.974Z,1013.98
2023-04-22T01:01:17.454Z,1014.00
2023-04-22T01:02:21.808Z,1013.99
2023-04-22T01:03:26.439Z,1013.99
2023-04-22T01:04:30.793Z,1014.01
2023-04-22T01:05:35.007Z,1013.99
2023-04-22T01:06:39.585Z,1013.98
2023-04-22T01:07:44.677Z,1013.99
2023-04-22T01:08:49.047Z,1014.01
2023-04-22T01:09:53.115Z,1014.00
2023-04-22T01:10:57.723Z,1013.98
2023-04-22T01:12:02.090Z,1013.99
2023-04-22T01:13:06.181Z,1014.02
2023-04-22T01:14:10.504Z,1013.99
2023-04-22T01:15:15.356Z,1013.97
2023-04-22T01:16:19.220Z,1014.01
2023-04-22T01:17:23.806Z,1014.03
2023-04-22T01:18:28.122Z,1013.97
2023-04-22T01:19:32.473Z,1013.98
2023-04-22T01:20:36.577Z,1013.99
2023-04-22T01:21:41.167Z,1013.97
2023-04-22T01:22:45.513Z,1013.95
2023-04-22T01:23:50.106Z,1013.94
2023-04-22T01:24:54.487Z,1013.98
2023-04-22T01:25:58.301Z,1013.97
2023-04-22T01:27:02.899Z,1014.00
2023-04-22T01:28:06.997Z,1013.98
2023-04-22T01:29:11.589Z,1014.02
2023-04-22T01:30:15.676Z,1014.00
2023-04-22T01:31:20.032Z,1014.01
2023-04-22T01:32:24.761Z,1014.01
2023-04-22T01:33:29.226Z,1013.99
2023-04-22T01:34:33.083Z,1014.00
2023-04-22T01:35:37.699Z,1014.00
2023-04-22T01:36:42.018Z,1014.05
2023-04-22T01:37:47.613Z,1014.01
2023-04-22T01:38:51.711Z,1014.05
2023-04-22T01:39:55.798Z,1013.97
2023-04-22T01:41:00.405Z,1014.00
2023-04-22T01:42:04.732Z,1014.01
2023-04-22T01:43:09.092Z,1014.02
2023-04-22T01:44:13.423Z,1014.02
2023-04-22T01:45:17.543Z,1014.01
2023-04-22T01:46:21.898Z,1013.98
2023-04-22T01:47:26.206Z,1013.95
2023-04-22T01:48:30.561Z,1013.95
2023-04-22T01:49:35.187Z,1013.95
2023-04-22T01:50:39.782Z,1014.01
2023-04-22T01:51:43.847Z,1013.99
2023-04-22T01:52:48.200Z,1013.97
2023-04-22T01:53:52.530Z,1014.00
2023-04-22T01:54:56.603Z,1014.00
2023-04-22T01:56:01.205Z,1014.05
2023-04-22T01:57:05.559Z,1014.00
2023-04-22T01:58:09.617Z,1014.04
2023-04-22T01:59:14.455Z,1014.00
2023-04-22T02:00:18.550Z,1014.00
2023-04-22T02:01:22.974Z,1013.98
2023-04-22T02:02:27.036Z,1013.98
2023-04-22T02:03:31.477Z,1014.02
2023-04-22T02:04:35.692Z,1013.98
2023-04-22T02:05:40.275Z,1014.03
2023-04-22T02:06:44.608Z,1014.07
2023-04-22T02:07:50.201Z,1014.05
2023-04-22T02:08:54.522Z,1014.05
2023-04-22T02:09:58.365Z,1014.09
2023-04-22T02:11:02.721Z,1014.09
2023-04-22T02:12:07.379Z,1014.11
2023-04-22T02:13:11.359Z,1014.14
2023-04-22T02:14:15.693Z,1014.13
2023-04-22T02:15:20.287Z,1014.10
2023-04-22T02:16:24.742Z,1014.12
2023-04-22T02:17:29.224Z,1014.12
2023-04-22T02:18:33.543Z,1014.14
2023-04-22T02:19:38.193Z,1014.11
2023-04-22T02:20:41.984Z,1014.09
2023-04-22T02:21:46.078Z,1014.11
2023-04-22T02:22:50.426Z,1014.13
2023-04-22T02:23:54.774Z,1014.11
2023-04-22T02:24:59.125Z,1014.11
2023-04-22T02:26:03.971Z,1014.13
2023-04-22T02:27:08.066Z,1014.07
2023-04-22T02:28:12.516Z,1014.11
2023-04-22T02:29:16.502Z,1014.08
2023-04-22T02:30:20.835Z,1014.08
2023-04-22T02:31:25.475Z,1014.07
2023-04-22T02:32:29.623Z,1014.10
2023-04-22T02:33:34.134Z,1014.09
2023-04-22T02:34:38.231Z,1014.12
2023-04-22T02:35:43.072Z,1014.11
2023-04-22T02:36:47.164Z,1014.15
2023-04-22T02:37:52.792Z,1014.11
2023-04-22T02:38:56.870Z,1014.11
2023-04-22T02:40:01.202Z,1014.13
2023-04-22T02:41:05.550Z,1014.13
2023-04-22T02:42:09.903Z,1014.12
2023-04-22T02:43:14.249Z,1014.11
2023-04-22T02:44:18.921Z,1014.08
2023-04-22T02:45:22.656Z,1014.12
2023-04-22T02:46:27.296Z,1014.08
2023-04-22T02:47:31.388Z,1014.08
2023-04-22T02:48:35.957Z,1014.07
2023-04-22T02:49:40.469Z,1014.11
2023-04-22T02:50:44.363Z,1014.09
2023-04-22T02:51:48.982Z,1014.12
2023-04-22T02:52:53.598Z,1014.07
2023-04-22T02:53:57.643Z,1014.07
2023-04-22T02:55:01.712Z,1014.11
2023-04-22T02:56:06.312Z,1014.03
2023-04-22T02:57:10.642Z,1014.07
2023-04-22T02:58:14.719Z,1014.08
2023-04-22T02:59:19.304Z,1014.06
2023-04-22T03:00:23.681Z,1014.13
2023-04-22T03:01:28.107Z,1014.10
2023-04-22T03:02:32.699Z,1014.08
2023-04-22T03:03:36.725Z,1014.14
2023-04-22T03:04:40.719Z,1014.11
2023-04-22T03:05:45.326Z,1014.12
2023-04-22T03:06:49.394Z,1014.09
2023-04-22T03:07:55.243Z,1014.14
2023-04-22T03:08:59.090Z,1014.14
2023-04-22T03:10:03.686Z,1014.07
2023-04-22T03:11:08.271Z,1014.14
2023-04-22T03:12:12.091Z,1014.18
2023-04-22T03:13:16.684Z,1014.15
2023-04-22T03:14:20.999Z,1014.18
2023-04-22T03:15:25.091Z,1014.11
2023-04-22T03:16:29.773Z,1014.15
2023-04-22T03:17:34.040Z,1014.14
2023-04-22T03:18:38.098Z,1014.10
2023-04-22T03:19:43.171Z,1014.10
2023-04-22T03:20:47.029Z,1014.10
2023-04-22T03:21:51.381Z,1014.13
2023-04-22T03:22:55.452Z,1014.09
2023-04-22T03:23:59.787Z,1014.06
2023-04-22T03:25:04.371Z,1014.06
2023-04-22T03:26:08.476Z,1014.07
2023-04-22T03:27:12.805Z,1014.03
2023-04-22T03:28:17.412Z,1014.09
2023-04-22T03:29:21.741Z,1014.09
2023-04-22T03:30:26.053Z,1014.11
2023-04-22T03:31:30.441Z,1014.08
2023-04-22T03:32:34.548Z,1014.06
2023-04-22T03:33:39.110Z,1014.06
2023-04-22T03:34:43.178Z,1014.10
2023-04-22T03:35:47.766Z,1014.04
2023-04-22T03:36:52.112Z,1014.05
2023-04-22T03:37:57.733Z,1014.09
2023-04-22T03:39:01.833Z,1014.09
2023-04-22T03:40:06.125Z,1014.10
2023-04-22T03:41:10.562Z,1014.04
2023-04-22T03:42:14.546Z,1014.05
2023-04-22T03:43:19.142Z,1014.05
2023-04-22T03:44:23.471Z,1014.06
2023-04-22T03:45:27.535Z,1014.03
2023-04-22T03:46:32.671Z,1014.04
2023-04-22T03:47:36.474Z,1014.00
2023-04-22T03:48:40.824Z,1014.05
2023-04-22T03:49:44.868Z,1014.04
2023-04-22T03:50:49.197Z,1014.05
2023-04-22T03:51:53.790Z,1014.07
2023-04-22T03:52:58.123Z,1014.09
2023-04-22T03:54:02.185Z,1014.02
2023-04-22T03:55:06.786Z,1014.05
2023-04-22T03:56:11.112Z,1014.04
2023-04-22T03:57:15.427Z,1014.03
2023-04-22T03:58:19.505Z,1014.03
2023-04-22T03:59:23.846Z,1014.05
2023-04-22T04:00:28.169Z,1014.06
2023-04-22T04:01:32.763Z,1014.01
2023-04-22T04:02:37.237Z,1014.00
2023-04-22T04:03:41.446Z,1014.04
2023-04-22T04:04:46.011Z,1014.03
2023-04-22T04:05:50.170Z,1014.08
2023-04-22T04:06:54.473Z,1014.01
2023-04-22T04:07:59.817Z,1014.02
2023-04-22T04:09:03.923Z,1014.05
2023-04-22T04:10:08.228Z,1014.03
2023-04-22T04:11:12.815Z,1014.00
2023-04-22T04:12:17.165Z,1014.01
2023-04-22T04:13:21.727Z,1013.99
2023-04-22T04:14:26.048Z,1013.98
2023-04-22T04:15:29.874Z,1014.01
2023-04-22T04:16:34.255Z,1014.02
2023-04-22T04:17:38.849Z,1014.03
2023-04-22T04:18:43.141Z,1014.02
2023-04-22T04:19:47.456Z,1014.01
2023-04-22T04:20:51.831Z,1014.01
2023-04-22T04:21:56.128Z,1014.01
2023-04-22T04:23:00.742Z,1014.02
2023-04-22T04:24:04.799Z,1013.99
2023-04-22T04:25:09.139Z,1013.98
2023-04-22T04:26:13.466Z,1014.02
2023-04-22T04:27:17.784Z,1014.05
2023-04-22T04:28:22.110Z,1014.03
2023-04-22T04:29:26.452Z,1013.99
2023-04-22T04:30:32.354Z,1014.04
2023-04-22T04:31:35.430Z,1014.05
2023-04-22T04:32:39.484Z,1014.04
2023-04-22T04:33:43.812Z,1014.01
2023-04-22T04:34:48.134Z,1014.02
2023-04-22T04:35:52.489Z,1013.99
2023-04-22T04:36:56.597Z,1014.03
2023-04-22T04:38:02.244Z,1014.04
2023-04-22T04:39:06.525Z,1014.01
2023-04-22T04:40:11.099Z,1014.07
2023-04-22T04:41:15.189Z,1014.02
2023-04-22T04:42:19.268Z,1014.07
2023-04-22T04:43:23.861Z,1014.03
2023-04-22T04:44:27.956Z,1014.04
2023-04-22T04:45:32.294Z,1014.00
2023-04-22T04:46:36.716Z,1014.01
2023-04-22T04:47:41.075Z,1013.96
2023-04-22T04:48:45.850Z,1014.01
2023-04-22T04:49:49.938Z,1014.04
2023-04-22T04:50:54.078Z,1014.03
2023-04-22T04:51:58.661Z,1014.03
2023-04-22T04:53:03.001Z,1014.07
2023-04-22T04:54:07.077Z,1014.03
2023-04-22T04:55:11.675Z,1014.02
2023-04-22T04:56:16.046Z,1014.06
2023-04-22T04:57:20.401Z,1014.03
2023-04-22T04:58:24.749Z,1014.02
2023-04-22T04:59:29.084Z,1014.00
2023-04-22T05:00:33.192Z,1014.04
2023-04-22T05:01:37.889Z,1014.00
2023-04-22T05:02:41.995Z,1014.04
2023-04-22T05:03:46.379Z,1014.06
2023-04-22T05:04:50.906Z,1014.07
2023-04-22T05:05:54.909Z,1014.09
2023-04-22T05:06:59.493Z,1014.10
2023-04-22T05:08:05.387Z,1014.13
2023-04-22T05:09:08.974Z,1014.17
2023-04-22T05:10:13.301Z,1014.17
2023-04-22T05:11:17.907Z,1014.16
2023-04-22T05:12:22.013Z,1014.19
2023-04-22T05:13:26.399Z,1014.20
2023-04-22T05:14:30.994Z,1014.15
2023-04-22T05:15:35.603Z,1014.18
2023-04-22T05:16:39.791Z,1014.22
2023-04-22T05:17:43.847Z,1014.25
2023-04-22T05:18:48.219Z,1014.27
2023-04-22T05:19:52.807Z,1014.25
2023-04-22T05:20:57.128Z,1014.27
2023-04-22T05:22:01.478Z,1014.31
2023-04-22T05:23:05.539Z,1014.30
2023-04-22T05:24:10.443Z,1014.36
2023-04-22T05:25:14.499Z,1014.34
2023-04-22T05:26:18.564Z,1014.32
2023-04-22T05:27:23.159Z,1014.31
2023-04-22T05:28:27.515Z,1014.36
2023-04-22T05:29:31.579Z,1014.35
2023-04-22T05:30:36.180Z,1014.36
2023-04-22T05:31:40.522Z,1014.38
2023-04-22T05:32:44.628Z,1014.37
2023-04-22T05:33:49.415Z,1014.38
2023-04-22T05:34:53.514Z,1014.41
2023-04-22T05:35:57.894Z,1014.40
2023-04-22T05:37:01.959Z,1014.42
2023-04-22T05:38:07.559Z,1014.43
2023-04-22T05:39:11.628Z,1014.43
2023-04-22T05:40:16.256Z,1014.47
2023-04-22T05:41:20.573Z,1014.41
2023-04-22T05:42:25.216Z,1014.46
2023-04-22T05:43:29.541Z,1014.44
2023-04-22T05:44:33.361Z,1014.43
2023-04-22T05:45:37.728Z,1014.48
2023-04-22T05:46:42.315Z,1014.46
2023-04-22T05:47:46.429Z,1014.43
2023-04-22T05:48:50.735Z,1014.44
2023-04-22T05:49:55.060Z,1014.40
2023-04-22T05:50:59.918Z,1014.41
2023-04-22T05:52:03.988Z,1014.42
2023-04-22T05:53:08.071Z,1014.41
2023-04-22T05:54:12.655Z,1014.44
2023-04-22T05:55:17.005Z,1014.39
2023-04-22T05:56:21.117Z,1014.38
2023-04-22T05:57:25.683Z,1014.41
2023-04-22T05:58:29.761Z,1014.41
2023-04-22T05:59:34.094Z,1014.36
2023-04-22T06:00:38.935Z,1014.35
2023-04-22T06:01:43.009Z,1014.34
2023-04-22T06:02:47.265Z,1014.32
2023-04-22T06:03:51.919Z,1014.32
2023-04-22T06:04:56.431Z,1014.33
2023-04-22T06:06:00.349Z,1014.29
2023-04-22T06:07:04.722Z,1014.28
2023-04-22T06:09:07.130Z,1014.21
2023-04-22T06:10:11.487Z,1014.20
2023-04-22T06:11:15.554Z,1014.21
2023-04-22T06:12:21.632Z,1014.18
2023-04-22T06:13:24.465Z,1014.17
2023-04-22T06:14:28.537Z,1014.19
2023-04-22T06:15:33.194Z,1014.17
2023-04-22T06:16:37.459Z,1014.17
2023-04-22T06:17:41.551Z,1014.24
2023-04-22T06:18:45.858Z,1014.18
2023-04-22T06:19:50.186Z,1014.22
2023-04-22T06:20:54.797Z,1014.19
2023-04-22T06:21:59.141Z,1014.18
2023-04-22T06:23:03.466Z,1014.20
2023-04-22T06:24:07.536Z,1014.19
2023-04-22T06:25:12.138Z,1014.24
2023-04-22T06:26:16.193Z,1014.24
2023-04-22T06:27:20.781Z,1014.18
2023-04-22T06:28:24.875Z,1014.18
2023-04-22T06:29:29.182Z,1014.18
2023-04-22T06:33:27.293Z,1014.18
2023-04-22T06:34:26.415Z,1014.13
2023-04-22T06:35:30.501Z,1014.18
2023-04-22T06:36:34.829Z,1014.13
2023-04-22T06:37:39.217Z,1014.15
2023-04-22T06:38:43.806Z,1014.12
2023-04-22T06:39:48.495Z,1014.09
2023-04-22T06:40:52.210Z,1014.09
2023-04-22T06:41:56.797Z,1014.11
2023-04-22T06:43:01.139Z,1014.15
2023-04-22T06:44:05.493Z,1014.14
2023-04-22T06:45:09.563Z,1014.18
2023-04-22T06:46:14.207Z,1014.20
2023-04-22T06:47:18.378Z,1014.26
2023-04-22T06:48:23.103Z,1014.21
2023-04-22T06:49:27.198Z,1014.19
2023-04-22T06:50:31.540Z,1014.15
2023-04-22T06:51:35.610Z,1014.16
2023-04-22T06:52:40.213Z,1014.12
2023-04-22T06:53:44.556Z,1014.19
2023-04-22T06:54:48.637Z,1014.13
2023-04-22T06:55:52.957Z,1014.13
2023-04-22T06:57:07.297Z,1014.15
2023-04-22T06:58:01.471Z,1014.16
2023-04-22T06:59:05.545Z,1014.18
2023-04-22T07:00:09.918Z,1014.14
2023-04-22T07:01:14.269Z,1014.18
2023-04-22T07:02:18.616Z,1014.16
2023-04-22T07:03:19.130Z,1014.09
2023-04-22T07:04:23.351Z,1014.06
2023-04-22T07:05:27.633Z,1014.08
2023-04-22T07:06:31.972Z,1014.07
2023-04-22T07:07:36.059Z,1014.06
2023-04-22T07:08:40.896Z,1014.03
2023-04-22T07:09:44.967Z,1013.99
2023-04-22T07:10:49.053Z,1013.96
2023-04-22T07:11:53.634Z,1013.94
2023-04-22T07:12:57.977Z,1013.98
2023-04-22T07:14:02.303Z,1013.99
2023-04-22T07:15:06.664Z,1013.93
2023-04-22T07:16:11.062Z,1013.93
2023-04-22T07:17:15.572Z,1013.97
2023-04-22T07:18:19.891Z,1013.95
2023-04-22T07:19:23.740Z,1013.95
2023-04-22T07:20:28.307Z,1013.94
2023-04-22T07:21:32.655Z,1013.92
2023-04-22T07:22:37.014Z,1013.92
2023-04-22T07:23:41.064Z,1013.88
2023-04-22T07:24:45.395Z,1013.89
2023-04-22T07:25:49.729Z,1013.86
2023-04-22T07:26:54.315Z,1013.91
2023-04-22T07:27:58.662Z,1013.93
2023-04-22T07:29:02.985Z,1013.96
2023-04-22T07:30:07.071Z,1013.98
2023-04-22T07:31:11.683Z,1013.95
2023-04-22T07:32:16.026Z,1013.94
2023-04-22T07:33:16.124Z,1013.95
2023-04-22T07:34:20.448Z,1013.92
2023-04-22T07:35:24.535Z,1013.96
2023-04-22T07:36:29.137Z,1013.99
2023-04-22T07:37:33.485Z,1013.92
2023-04-22T07:38:38.061Z,1013.96
2023-04-22T07:39:42.381Z,1013.92
2023-04-22T07:40:46.247Z,1013.92
2023-04-22T07:41:50.850Z,1013.91
2023-04-22T07:42:55.169Z,1013.97
2023-04-22T07:43:59.517Z,1013.94
2023-04-22T07:45:03.602Z,1014.00
2023-04-22T07:46:08.212Z,1013.94
2023-04-22T07:47:12.802Z,1013.96
2023-04-22T07:48:17.169Z,1013.91
2023-04-22T07:49:21.178Z,1013.93
2023-04-22T07:50:25.601Z,1013.91
2023-04-22T07:51:29.600Z,1013.91
2023-04-22T07:52:34.196Z,1013.94
2023-04-22T07:53:38.538Z,1013.94
2023-04-22T07:54:42.866Z,1013.95
2023-04-22T07:55:47.183Z,1013.95
2023-04-22T07:56:51.785Z,1013.92
2023-04-22T07:57:56.109Z,1013.94
2023-04-22T07:58:59.930Z,1013.95
2023-04-22T08:00:04.252Z,1013.99
2023-04-22T08:01:08.892Z,1013.96
2023-04-22T08:02:13.220Z,1013.97
2023-04-22T08:03:13.441Z,1013.95
2023-04-22T08:04:17.985Z,1013.89
2023-04-22T08:05:22.088Z,1013.93
2023-04-22T08:06:26.310Z,1013.96
2023-04-22T08:07:32.902Z,1013.85
2023-04-22T08:08:35.005Z,1013.82
2023-04-22T08:09:39.713Z,1013.82
2023-04-22T08:10:43.672Z,1013.77
2023-04-22T08:11:48.020Z,1013.78
2023-04-22T08:12:52.117Z,1013.79
2023-04-22T08:13:56.449Z,1013.79
2023-04-22T08:17:10.401Z,1013.66
2023-04-22T08:18:10.084Z,1013.67
2023-04-22T08:19:14.032Z,1013.64
2023-04-22T08:20:18.518Z,1013.65
2023-04-22T08:21:22.700Z,1013.65
2023-04-22T08:22:27.296Z,1013.64
2023-04-22T08:23:31.604Z,1013.63
2023-04-22T08:24:36.216Z,1013.66
2023-04-22T08:25:40.591Z,1013.67
2023-04-22T08:26:44.679Z,1013.61
2023-04-22T08:27:49.046Z,1013.58
2023-04-22T08:28:53.144Z,1013.62
2023-04-22T08:29:57.763Z,1013.60
2023-04-22T08:31:01.896Z,1013.53
2023-04-22T08:32:06.213Z,1013.55
2023-04-22T08:33:10.829Z,1013.48
2023-04-22T08:34:15.177Z,1013.52
2023-04-22T08:35:19.523Z,1013.54
2023-04-22T08:36:23.647Z,1013.47
2023-04-22T08:37:28.244Z,1013.53
2023-04-22T08:38:32.601Z,1013.57
2023-04-22T08:39:37.189Z,1013.49
2023-04-22T08:40:41.050Z,1013.48
2023-04-22T08:41:45.653Z,1013.49
2023-04-22T08:42:50.282Z,1013.47
2023-04-22T08:43:54.638Z,1013.47
2023-04-22T08:44:58.724Z,1013.49
2023-04-22T08:46:03.092Z,1013.49
2023-04-22T08:47:03.204Z,1013.50
2023-04-22T08:48:07.260Z,1013.52
2023-04-22T08:49:11.858Z,1013.51
2023-04-22T08:50:16.179Z,1013.48
2023-04-22T08:51:20.543Z,1013.45
2023-04-22T08:52:24.879Z,1013.40
2023-04-22T08:53:29.204Z,1013.39
2023-04-22T08:54:33.795Z,1013.41
2023-04-22T08:55:37.916Z,1013.37
2023-04-22T08:56:42.243Z,1013.38
2023-04-22T08:57:46.592Z,1013.36
2023-04-22T08:58:50.907Z,1013.40
2023-04-22T08:59:55.018Z,1013.37
2023-04-22T09:00:59.327Z,1013.37
2023-04-22T09:02:04.056Z,1013.41
2023-04-22T09:03:08.593Z,1013.41
2023-04-22T09:04:12.753Z,1013.38
2023-04-22T09:05:16.917Z,1013.37
2023-04-22T09:06:21.024Z,1013.36
2023-04-22T09:07:25.395Z,1013.35
2023-04-22T09:08:29.763Z,1013.32
2023-04-22T09:09:34.328Z,1013.40
2023-04-22T09:10:38.419Z,1013.41
2023-04-22T09:11:43.002Z,1013.37
2023-04-22T09:12:47.593Z,1013.32
2023-04-22T09:13:51.440Z,1013.35
2023-04-22T09:14:55.757Z,1013.39
2023-04-22T09:16:00.266Z,1013.40
2023-04-22T09:17:00.481Z,1013.41
2023-04-22T09:18:04.592Z,1013.38
2023-04-22T09:19:29.756Z,1013.36
2023-04-22T09:20:13.522Z,1013.39
2023-04-22T09:21:17.573Z,1013.35
2023-04-22T09:22:22.079Z,1013.37
2023-04-22T09:23:27.335Z,1013.39
2023-04-22T09:24:31.535Z,1013.34
2023-04-22T09:25:35.657Z,1013.31
2023-04-22T09:26:40.034Z,1013.31
2023-04-22T09:27:44.087Z,1013.35
2023-04-22T09:28:48.439Z,1013.40
2023-04-22T09:29:52.765Z,1013.33
2023-04-22T09:30:57.105Z,1013.34
2023-04-22T09:32:01.495Z,1013.36
2023-04-22T09:33:06.184Z,1013.34
2023-04-22T09:34:10.431Z,1013.37
2023-04-22T09:35:14.556Z,1013.38
2023-04-22T09:36:19.176Z,1013.41
2023-04-22T09:37:23.501Z,1013.42
2023-04-22T09:38:27.578Z,1013.45
2023-04-22T09:39:32.173Z,1013.45
2023-04-22T09:40:36.284Z,1013.42
2023-04-22T09:41:40.850Z,1013.45
2023-04-22T09:42:45.182Z,1013.40
2023-04-22T09:43:49.532Z,1013.48
2023-04-22T09:44:53.597Z,1013.42
2023-04-22T09:45:58.212Z,1013.45
2023-04-22T09:46:58.322Z,1013.45
2023-04-22T09:48:02.756Z,1013.46
2023-04-22T09:49:06.989Z,1013.48
2023-04-22T09:50:08.927Z,1013.46
2023-04-22T09:51:16.025Z,1013.37
2023-04-22T09:52:20.885Z,1013.47
2023-04-22T09:53:24.982Z,1013.42
2023-04-22T09:54:29.051Z,1013.36
2023-04-22T09:55:33.418Z,1013.41
2023-04-22T09:56:37.732Z,1013.47
2023-04-22T09:57:42.057Z,1013.46
2023-04-22T09:58:46.395Z,1013.42
2023-04-22T09:59:50.721Z,1013.50
2023-04-22T10:00:55.121Z,1013.43
2023-04-22T10:01:59.920Z,1013.42
2023-04-22T10:03:04.089Z,1013.39
2023-04-22T10:04:08.332Z,1013.35
2023-04-22T10:05:12.401Z,1013.35
2023-04-22T10:06:16.727Z,1013.33
2023-04-22T10:07:21.091Z,1013.29
2023-04-22T10:08:25.675Z,1013.25
2023-04-22T10:09:29.756Z,1013.23
2023-04-22T10:10:34.582Z,1013.21
2023-04-22T10:11:38.908Z,1013.27
2023-04-22T10:12:43.024Z,1013.20
2023-04-22T10:13:47.081Z,1013.16
2023-04-22T10:14:51.670Z,1013.18
2023-04-22T10:15:55.021Z,1013.16
2023-04-22T10:16:56.167Z,1013.12
2023-04-22T10:18:00.285Z,1013.12
2023-04-22T10:19:04.840Z,1013.03
2023-04-22T10:20:08.937Z,1013.10
2023-04-22T10:21:13.302Z,1013.06
2023-04-22T10:22:17.923Z,1013.03
2023-04-22T10:23:22.285Z,1013.07
2023-04-22T10:24:26.384Z,1013.12
2023-04-22T10:25:30.710Z,1013.13
2023-04-22T10:26:35.313Z,1013.10
2023-04-22T10:27:39.679Z,1013.02
2023-04-22T10:28:44.013Z,1013.04
2023-04-22T10:29:48.327Z,1013.02
2023-04-22T10:30:52.779Z,1013.06
2023-04-22T10:31:57.330Z,1013.03
2023-04-22T10:33:01.638Z,1013.05
2023-04-22T10:34:05.444Z,1013.03
2023-04-22T10:35:09.926Z,1012.98
2023-04-22T10:36:14.368Z,1013.06
2023-04-22T10:37:18.682Z,1013.09
2023-04-22T10:38:23.037Z,1012.97
2023-04-22T10:39:27.125Z,1012.98
2023-04-22T10:40:31.733Z,1012.89
2023-04-22T10:41:36.295Z,1012.88
2023-04-22T10:42:40.395Z,1012.95
2023-04-22T10:43:44.469Z,1012.90
2023-04-22T10:44:48.843Z,1012.90
2023-04-22T10:45:53.340Z,1012.81
2023-04-22T10:46:53.375Z,1012.89
2023-04-22T10:47:57.955Z,1012.91
2023-04-22T10:49:02.298Z,1012.88
2023-04-22T10:50:06.651Z,1012.83
2023-04-22T10:51:10.707Z,1012.84
2023-04-22T10:52:15.321Z,1012.79
2023-04-22T10:53:19.666Z,1012.82
2023-04-22T10:54:23.736Z,1012.87
2023-04-22T10:55:28.333Z,1012.85
2023-04-22T10:56:32.408Z,1012.90
2023-04-22T10:57:36.741Z,1012.77
2023-04-22T10:58:41.380Z,1012.78
2023-04-22T10:59:45.706Z,1012.66
2023-04-22T11:00:53.928Z,1012.68
2023-04-22T11:01:54.456Z,1012.64
2023-04-22T11:02:58.784Z,1012.59
2023-04-22T11:04:03.122Z,1012.63
2023-04-22T11:05:07.122Z,1012.64
2023-04-22T11:06:11.459Z,1012.56
2023-04-22T11:07:15.815Z,1012.55
2023-04-22T11:08:20.154Z,1012.64
2023-04-22T11:09:24.506Z,1012.62
2023-04-22T11:10:29.343Z,1012.55
2023-04-22T11:11:33.441Z,1012.55
2023-04-22T11:12:37.515Z,1012.59
2023-04-22T11:13:41.889Z,1012.48
2023-04-22T11:14:46.225Z,1012.55
2023-04-22T11:15:51.067Z,1012.48
2023-04-22T11:16:51.102Z,1012.51
2023-04-22T11:17:55.438Z,1012.47
2023-04-22T11:18:59.449Z,1012.52
2023-04-22T11:20:03.791Z,1012.52
2023-04-22T11:21:08.670Z,1012.49
2023-04-22T11:22:12.987Z,1012.45
2023-04-22T11:23:17.084Z,1012.45
2023-04-22T11:24:21.438Z,1012.43
2023-04-22T11:25:25.502Z,1012.44
2023-04-22T11:26:30.128Z,1012.44
2023-04-22T11:27:34.483Z,1012.49
2023-04-22T11:28:38.569Z,1012.49
2023-04-22T11:29:42.887Z,1012.44
2023-04-22T11:30:47.502Z,1012.41
2023-04-22T11:31:52.132Z,1012.45
2023-04-22T11:32:56.174Z,1012.44
2023-04-22T11:34:00.566Z,1012.41
2023-04-22T11:35:04.570Z,1012.45
2023-04-22T11:37:56.632Z,1012.35
2023-04-22T11:39:00.983Z,1012.30
2023-04-22T11:40:17.297Z,1012.34
2023-04-22T11:41:09.913Z,1012.26
2023-04-22T11:42:13.985Z,1012.27
2023-04-22T11:43:18.329Z,1012.32
2023-04-22T11:44:22.692Z,1012.30
2023-04-22T11:45:26.988Z,1012.29
2023-04-22T11:46:31.719Z,1012.23
2023-04-22T11:47:35.989Z,1012.26
2023-04-22T11:48:40.041Z,1012.18
2023-04-22T11:49:44.660Z,1012.26
2023-04-22T11:50:49.037Z,1012.24
2023-04-22T11:51:53.122Z,1012.22
2023-04-22T11:52:57.754Z,1012.18
2023-04-22T11:54:02.098Z,1012.27
2023-04-22T11:55:06.466Z,1012.11
2023-04-22T11:56:10.813Z,1012.17
2023-04-22T11:57:14.927Z,1012.24
2023-04-22T11:58:19.286Z,1012.17
2023-04-22T11:59:23.661Z,1012.15
2023-04-22T12:00:28.003Z,1012.22
2023-04-22T12:01:32.363Z,1012.20
2023-04-22T12:02:36.838Z,1012.16
2023-04-22T12:03:42.335Z,1012.15
2023-04-22T12:04:45.940Z,1012.16
2023-04-22T12:05:49.798Z,1012.09
2023-04-22T12:06:54.207Z,1012.17
2023-04-22T12:07:54.509Z,1012.16
2023-04-22T12:08:58.854Z,1012.16
2023-04-22T12:10:02.945Z,1012.13
2023-04-22T12:11:07.274Z,1012.17
2023-04-22T12:12:11.609Z,1012.09
2023-04-22T12:13:16.221Z,1012.06
2023-04-22T12:14:20.282Z,1012.08
2023-04-22T12:15:24.886Z,1012.05
2023-04-22T12:16:29.325Z,1012.12
2023-04-22T12:17:33.592Z,1012.10
2023-04-22T12:18:37.931Z,1012.09
2023-04-22T12:19:42.140Z,1012.04
2023-04-22T12:20:46.569Z,1011.94
2023-04-22T12:21:50.917Z,1012.04
2023-04-22T12:22:55.013Z,1011.94
2023-04-22T12:23:59.646Z,1011.94
2023-04-22T12:25:04.249Z,1011.92
2023-04-22T12:26:08.337Z,1011.86
2023-04-22T12:27:12.415Z,1011.88
2023-04-22T12:28:16.758Z,1011.83
2023-04-22T12:29:46.190Z,1011.83
2023-04-22T12:30:51.493Z,1011.89
2023-04-22T12:31:55.027Z,1011.86
2023-04-22T12:32:59.356Z,1011.94
2023-04-22T12:34:03.727Z,1011.88
2023-04-22T12:35:08.305Z,1011.89
2023-04-22T12:36:12.658Z,1011.84
2023-04-22T12:37:16.979Z,1011.95
2023-04-22T12:38:21.556Z,1011.89
2023-04-22T12:39:25.620Z,1011.88
2023-04-22T12:40:29.983Z,1011.91
2023-04-22T12:41:34.046Z,1011.95
2023-04-22T12:42:38.637Z,1011.91
2023-04-22T12:43:42.721Z,1011.87
2023-04-22T12:44:47.327Z,1011.90
2023-04-22T12:45:51.412Z,1011.89
2023-04-22T12:46:55.999Z,1011.88
2023-04-22T12:48:00.598Z,1011.90
2023-04-22T12:49:04.943Z,1011.88
2023-04-22T12:50:08.770Z,1011.90
2023-04-22T12:51:13.382Z,1011.90
2023-04-22T12:52:17.440Z,1011.85
2023-04-22T12:53:21.788Z,1011.83
2023-04-22T12:54:26.140Z,1011.93
2023-04-22T12:55:30.462Z,1011.85
2023-04-22T12:56:34.829Z,1011.84
2023-04-22T12:57:39.422Z,1011.84
2023-04-22T12:58:43.492Z,1011.83
2023-04-22T12:59:44.117Z,1011.82
2023-04-22T13:00:48.446Z,1011.72
2023-04-22T13:01:52.423Z,1011.82
2023-04-22T13:02:56.981Z,1011.79
2023-04-22T13:04:01.233Z,1011.77
2023-04-22T13:05:05.321Z,1011.80